Maitland, Florida
Current Conditions -  °F | °C
As of 7:09 PM on Tuesday 25 Nov 2014 (Local Time) from KORL Reporting Station
Light Rain Light Rain  
Wind Chill: 70°   Ceiling: 3100
Heat Index: 70°   Visibility: 10mi
Dew Point: 68°   Wind: 5mph
Humidity: 94%   Direction: 70°ENE
Pressure: 29.93"   Gusts: NA
Location:  28.63°N, 81.36°W
Report Text: KORL 260009Z 07004KT 10SM -RA BKN031 BKN035 OVC042 21/20 A2993
Loading
Personal Weather Stations






























Interactive Weather Map New forecast layout! Learn more

10-Day Weather Forecast

Advertisements
Track Severe Weather on mobile